createdAt,value
2022-11-20T00:01:35.184Z,67.53
2022-11-20T00:04:03.641Z,67.38
2022-11-20T00:06:32.206Z,67.28
2022-11-20T00:09:02.368Z,66.98
2022-11-20T00:11:37.269Z,66.97
2022-11-20T00:14:05.605Z,66.96
2022-11-20T00:16:35.346Z,66.67
2022-11-20T00:19:03.862Z,66.77
2022-11-20T00:21:32.258Z,67.14
2022-11-20T00:24:01.041Z,67.06
2022-11-20T00:26:31.101Z,66.63
2022-11-20T00:29:03.274Z,66.28
2022-11-20T00:31:33.994Z,66.71
2022-11-20T00:34:02.158Z,67.08
2022-11-20T00:36:34.598Z,66.85
2022-11-20T00:39:02.996Z,66.76
2022-11-20T00:41:31.973Z,66.50
2022-11-20T00:44:01.790Z,66.60
2022-11-20T00:46:30.303Z,67.18
2022-11-20T00:48:59.393Z,66.29
2022-11-20T00:51:29.142Z,66.35
2022-11-20T00:53:58.602Z,66.53
2022-11-20T00:56:26.673Z,66.17
2022-11-20T00:58:55.093Z,66.20
2022-11-20T01:01:27.351Z,65.98
2022-11-20T01:03:57.798Z,65.59
2022-11-20T01:06:28.006Z,66.25
2022-11-20T01:08:58.382Z,65.91
2022-11-20T01:11:29.258Z,65.89
2022-11-20T01:13:59.246Z,65.94
2022-11-20T01:16:31.578Z,65.79
2022-11-20T01:19:02.798Z,65.84
2022-11-20T01:21:33.326Z,65.36
2022-11-20T01:24:02.719Z,65.43
2022-11-20T01:26:32.878Z,65.70
2022-11-20T01:29:02.563Z,65.50
2022-11-20T01:31:34.824Z,65.88
2022-11-20T01:34:06.568Z,65.44
2022-11-20T01:36:37.227Z,66.00
2022-11-20T01:39:08.268Z,65.04
2022-11-20T01:41:54.508Z,65.40
2022-11-20T01:44:47.523Z,65.19
2022-11-20T01:47:22.094Z,65.24
2022-11-20T01:49:56.988Z,65.01
2022-11-20T01:52:29.928Z,65.64
2022-11-20T01:55:04.225Z,65.46
2022-11-20T01:57:35.942Z,65.38
2022-11-20T02:00:10.424Z,65.19
2022-11-20T02:02:47.851Z,65.30
2022-11-20T02:05:24.595Z,65.17
2022-11-20T02:07:54.415Z,65.31
2022-11-20T02:10:23.277Z,65.42
2022-11-20T02:13:09.561Z,65.26
2022-11-20T02:15:37.686Z,65.27
2022-11-20T02:18:08.429Z,65.29
2022-11-20T02:20:36.547Z,65.29
2022-11-20T02:23:13.420Z,65.27
2022-11-20T02:25:43.941Z,65.95
2022-11-20T02:28:12.685Z,65.40
2022-11-20T02:30:40.780Z,65.56
2022-11-20T02:33:08.843Z,65.44
2022-11-20T02:35:46.472Z,65.59
2022-11-20T02:38:16.309Z,66.00
2022-11-20T02:40:45.921Z,65.88
2022-11-20T02:43:14.289Z,65.91
2022-11-20T02:45:42.391Z,65.67
2022-11-20T02:48:10.546Z,66.15
2022-11-20T02:50:40.987Z,65.89
2022-11-20T02:53:09.377Z,65.97
2022-11-20T02:55:38.093Z,66.44
2022-11-20T02:58:07.593Z,65.92
2022-11-20T03:00:36.418Z,66.16
2022-11-20T03:03:04.809Z,65.42
2022-11-20T03:05:33.021Z,66.33
2022-11-20T03:08:01.123Z,66.33
2022-11-20T03:10:29.237Z,66.10
2022-11-20T03:13:00.916Z,66.06
2022-11-20T03:19:36.570Z,65.87
2022-11-20T03:22:04.799Z,65.78
2022-11-20T03:24:33.070Z,65.82
2022-11-20T03:27:01.182Z,65.88
2022-11-20T03:29:29.422Z,65.70
2022-11-20T03:31:58.882Z,65.53
2022-11-20T03:34:27.049Z,65.92
2022-11-20T03:36:55.368Z,66.23
2022-11-20T03:39:23.908Z,66.12
2022-11-20T03:41:52.334Z,65.91
2022-11-20T03:44:23.867Z,65.87
2022-11-20T03:46:51.974Z,65.75
2022-11-20T03:49:21.789Z,66.03
2022-11-20T03:51:50.160Z,65.62
2022-11-20T03:54:18.707Z,66.26
2022-11-20T03:56:46.843Z,66.17
2022-11-20T03:59:15.407Z,66.42
2022-11-20T04:01:48.274Z,66.37
2022-11-20T04:04:17.577Z,66.34
2022-11-20T04:06:47.070Z,66.63
2022-11-20T04:09:16.658Z,66.23
2022-11-20T04:11:44.806Z,66.48
2022-11-20T04:14:17.337Z,66.63
2022-11-20T04:16:45.835Z,66.49
2022-11-20T04:19:17.294Z,66.30
2022-11-20T04:21:47.240Z,66.70
2022-11-20T04:24:15.518Z,66.48
2022-11-20T04:26:43.774Z,66.62
2022-11-20T04:29:13.826Z,66.73
2022-11-20T04:31:42.030Z,66.80
2022-11-20T04:34:13.588Z,66.38
2022-11-20T04:36:41.765Z,66.58
2022-11-20T04:39:16.477Z,66.88
2022-11-20T04:41:44.843Z,67.26
2022-11-20T04:44:13.253Z,66.48
2022-11-20T04:46:43.990Z,66.45
2022-11-20T04:49:13.511Z,66.93
2022-11-20T04:51:41.697Z,66.84
2022-11-20T04:54:12.074Z,66.87
2022-11-20T04:56:41.563Z,67.09
2022-11-20T04:59:09.788Z,66.51
2022-11-20T05:01:38.005Z,66.55
2022-11-20T05:04:06.731Z,66.53
2022-11-20T05:06:35.077Z,66.68
2022-11-20T05:09:03.271Z,66.63
2022-11-20T05:11:31.359Z,66.52
2022-11-20T05:14:01.699Z,66.35
2022-11-20T05:16:30.111Z,66.49
2022-11-20T05:18:58.662Z,66.81
2022-11-20T05:21:26.813Z,66.86
2022-11-20T05:23:54.911Z,67.08
2022-11-20T05:26:24.512Z,67.42
2022-11-20T05:28:53.514Z,66.52
2022-11-20T05:31:27.710Z,67.17
2022-11-20T05:33:58.738Z,66.84
2022-11-20T05:36:27.104Z,66.24
2022-11-20T05:39:01.016Z,66.49
2022-11-20T05:41:30.266Z,66.45
2022-11-20T05:43:59.565Z,66.83
2022-11-20T05:46:29.805Z,66.54
2022-11-20T05:48:59.067Z,66.58
2022-11-20T05:51:29.583Z,66.78
2022-11-20T05:53:59.334Z,66.43
2022-11-20T05:56:27.550Z,66.35
2022-11-20T05:58:55.727Z,66.48
2022-11-20T06:01:27.310Z,66.49
2022-11-20T06:03:56.903Z,66.12
2022-11-20T06:06:26.118Z,66.87
2022-11-20T06:08:54.222Z,67.20
2022-11-20T06:11:22.969Z,66.87
2022-11-20T06:13:51.369Z,67.27
2022-11-20T06:16:22.655Z,66.89
2022-11-20T06:18:50.872Z,66.96
2022-11-20T06:21:23.754Z,66.68
2022-11-20T06:23:54.250Z,67.13
2022-11-20T06:26:25.136Z,66.43
2022-11-20T06:28:54.659Z,66.99
2022-11-20T06:31:24.998Z,66.52
2022-11-20T06:33:53.511Z,66.75
2022-11-20T06:36:24.569Z,66.88
2022-11-20T06:38:53.357Z,66.66
2022-11-20T06:41:23.683Z,66.97
2022-11-20T06:43:52.521Z,66.86
2022-11-20T06:46:22.349Z,66.33
2022-11-20T06:48:51.447Z,66.66
2022-11-20T06:51:19.682Z,66.54
2022-11-20T06:53:49.442Z,66.26
2022-11-20T06:56:17.747Z,66.40
2022-11-20T06:58:46.276Z,66.52
2022-11-20T07:01:16.645Z,66.94
2022-11-20T07:03:46.359Z,66.83
2022-11-20T07:06:16.080Z,66.56
2022-11-20T07:08:44.153Z,66.77
2022-11-20T07:11:15.037Z,66.15
2022-11-20T07:13:43.197Z,66.27
2022-11-20T07:16:11.630Z,66.43
2022-11-20T07:18:39.745Z,66.38
2022-11-20T07:21:10.419Z,66.25
2022-11-20T07:23:38.730Z,65.70
2022-11-20T07:26:08.142Z,66.18
2022-11-20T07:28:39.812Z,66.32
2022-11-20T07:31:33.279Z,66.08
2022-11-20T07:34:01.574Z,66.30
2022-11-20T07:36:29.690Z,66.76
2022-11-20T07:38:57.776Z,66.77
2022-11-20T07:41:25.874Z,66.43
2022-11-20T07:43:55.340Z,66.77
2022-11-20T07:46:23.407Z,66.51
2022-11-20T07:48:51.546Z,66.22
2022-11-20T07:51:19.610Z,65.96
2022-11-20T07:53:47.708Z,66.27
2022-11-20T07:56:15.816Z,65.63
2022-11-20T07:58:44.201Z,66.04
2022-11-20T08:01:13.756Z,66.00
2022-11-20T08:03:41.985Z,65.98
2022-11-20T08:06:10.786Z,66.04
2022-11-20T08:08:42.806Z,66.10
2022-11-20T08:11:28.734Z,66.22
2022-11-20T08:14:14.799Z,66.18
2022-11-20T08:16:46.877Z,65.96
2022-11-20T08:19:16.491Z,66.30
2022-11-20T08:21:44.681Z,66.24
2022-11-20T08:24:13.579Z,65.93
2022-11-20T08:26:42.479Z,66.60
2022-11-20T08:29:10.589Z,67.01
2022-11-20T08:31:38.782Z,66.49
2022-11-20T08:34:09.786Z,66.18
2022-11-20T08:36:41.812Z,66.14
2022-11-20T08:39:09.946Z,66.90
2022-11-20T08:41:38.082Z,66.32
2022-11-20T08:44:08.824Z,66.70
2022-11-20T08:46:39.746Z,66.78
2022-11-20T08:49:11.633Z,67.02
2022-11-20T08:51:40.920Z,66.69
2022-11-20T08:54:09.846Z,66.60
2022-11-20T08:56:38.173Z,66.20
2022-11-20T09:01:54.814Z,67.21
2022-11-20T09:04:24.461Z,67.75
2022-11-20T09:06:53.004Z,68.08
2022-11-20T09:09:21.683Z,67.83
2022-11-20T09:11:50.843Z,67.86
2022-11-20T09:14:19.065Z,68.37
2022-11-20T09:16:47.557Z,68.28
2022-11-20T09:22:05.417Z,68.87
2022-11-20T09:24:33.852Z,68.13
2022-11-20T09:27:05.740Z,68.28
2022-11-20T09:29:33.932Z,68.13
2022-11-20T09:32:01.974Z,67.97
2022-11-20T09:34:30.082Z,68.10
2022-11-20T09:37:01.522Z,67.79
2022-11-20T09:39:34.657Z,67.79
2022-11-20T09:42:21.978Z,67.31
2022-11-20T09:45:07.371Z,66.91
2022-11-20T09:47:50.106Z,67.12
2022-11-20T09:50:33.783Z,67.01
2022-11-20T09:53:21.515Z,67.27
2022-11-20T09:55:51.330Z,67.61
2022-11-20T09:58:33.013Z,67.22
2022-11-20T10:01:11.583Z,67.70
2022-11-20T10:03:51.505Z,67.98
2022-11-20T10:06:24.231Z,68.46
2022-11-20T10:09:04.197Z,68.31
2022-11-20T10:11:48.510Z,69.03
2022-11-20T10:14:32.788Z,69.22
2022-11-20T10:17:13.653Z,69.81
2022-11-20T10:20:03.746Z,69.05
2022-11-20T10:22:49.002Z,69.91
2022-11-20T10:25:20.071Z,70.70
2022-11-20T10:28:12.327Z,70.33
2022-11-20T10:30:45.659Z,70.30
2022-11-20T10:33:20.706Z,70.58
2022-11-20T10:35:56.847Z,69.99
2022-11-20T10:38:33.381Z,70.31
2022-11-20T10:41:18.863Z,70.60
2022-11-20T10:43:52.683Z,70.92
2022-11-20T10:46:24.071Z,70.72
2022-11-20T10:48:52.946Z,70.67
2022-11-20T10:51:37.271Z,70.89
2022-11-20T10:54:30.997Z,70.62
2022-11-20T10:57:07.715Z,70.78
2022-11-20T10:59:55.071Z,70.15
2022-11-20T11:02:25.570Z,70.42
2022-11-20T11:04:55.651Z,71.19
2022-11-20T11:07:29.982Z,70.48
2022-11-20T11:09:58.739Z,71.32
2022-11-20T11:12:29.477Z,71.57
2022-11-20T11:14:59.748Z,72.21
2022-11-20T11:17:31.545Z,71.76
2022-11-20T11:20:17.612Z,70.38
2022-11-20T11:22:49.051Z,70.57
2022-11-20T11:25:30.817Z,70.24
2022-11-20T11:28:03.814Z,70.09
2022-11-20T11:30:45.288Z,70.24
2022-11-20T11:33:26.557Z,70.54
2022-11-20T11:35:59.097Z,70.90
2022-11-20T11:38:35.250Z,71.13
2022-11-20T11:41:05.018Z,71.08
2022-11-20T11:43:55.094Z,70.68
2022-11-20T11:46:37.506Z,69.79
2022-11-20T11:49:18.955Z,69.17
2022-11-20T11:52:05.593Z,69.05
2022-11-20T11:54:40.355Z,69.78
2022-11-20T11:57:18.153Z,68.26
2022-11-20T11:59:59.600Z,66.37
2022-11-20T12:02:58.492Z,66.51
2022-11-20T12:05:31.311Z,72.79
2022-11-20T12:08:10.989Z,66.76
2022-11-20T12:10:47.698Z,65.63
2022-11-20T12:13:34.515Z,64.22
2022-11-20T12:16:04.423Z,64.11
2022-11-20T12:18:34.737Z,63.61
2022-11-20T12:21:19.642Z,62.68
2022-11-20T12:24:23.777Z,62.51
2022-11-20T12:27:08.727Z,60.88
2022-11-20T12:29:50.888Z,59.83
2022-11-20T12:32:50.417Z,58.47
2022-11-20T12:35:50.853Z,60.46
2022-11-20T12:39:10.302Z,59.16
2022-11-20T12:42:25.001Z,58.18
2022-11-20T12:45:21.181Z,57.72
2022-11-20T12:48:24.835Z,56.88
2022-11-20T12:51:26.195Z,57.07
2022-11-20T12:54:10.628Z,56.46
2022-11-20T12:56:46.453Z,57.08
2022-11-20T12:59:33.338Z,57.93
2022-11-20T13:02:19.848Z,57.89
2022-11-20T13:05:07.243Z,56.54
2022-11-20T13:07:38.225Z,57.47
2022-11-20T13:10:17.572Z,57.98
2022-11-20T13:12:51.362Z,56.16
2022-11-20T13:15:35.718Z,56.30
2022-11-20T13:18:07.258Z,56.79
2022-11-20T13:20:36.990Z,56.77
2022-11-20T13:23:06.431Z,57.49
2022-11-20T13:25:36.489Z,56.26
2022-11-20T13:28:27.379Z,57.31
2022-11-20T13:30:59.088Z,58.14
2022-11-20T13:33:32.923Z,56.75
2022-11-20T13:36:04.120Z,57.64
2022-11-20T13:38:46.679Z,58.04
2022-11-20T13:41:32.080Z,56.67
2022-11-20T13:44:09.228Z,58.05
2022-11-20T13:46:40.734Z,57.94
2022-11-20T13:49:19.928Z,58.76
2022-11-20T13:51:51.630Z,59.76
2022-11-20T13:55:02.943Z,60.18
2022-11-20T13:58:21.761Z,61.00
2022-11-20T14:00:58.588Z,60.09
2022-11-20T14:03:58.961Z,60.34
2022-11-20T14:06:29.196Z,60.42
2022-11-20T14:08:58.072Z,60.56
2022-11-20T14:11:29.852Z,60.95
2022-11-20T14:14:02.770Z,60.89
2022-11-20T14:16:33.884Z,59.78
2022-11-20T14:19:29.806Z,60.00
2022-11-20T14:22:12.057Z,60.00
2022-11-20T14:24:40.238Z,60.23
2022-11-20T14:27:16.467Z,60.63
2022-11-20T14:29:47.139Z,60.42
2022-11-20T14:32:19.284Z,60.86
2022-11-20T14:34:50.780Z,61.11
2022-11-20T14:37:23.663Z,60.96
2022-11-20T14:39:54.627Z,61.23
2022-11-20T14:42:27.013Z,60.99
2022-11-20T14:44:58.764Z,60.93
2022-11-20T14:47:29.818Z,60.69
2022-11-20T14:50:00.262Z,61.06
2022-11-20T14:52:31.967Z,61.28
2022-11-20T14:55:01.329Z,60.82
2022-11-20T14:57:33.687Z,60.83
2022-11-20T15:00:21.329Z,59.98
2022-11-20T15:02:52.298Z,59.99
2022-11-20T15:05:26.961Z,59.85
2022-11-20T15:08:09.023Z,60.32
2022-11-20T15:10:37.991Z,61.38
2022-11-20T15:13:14.243Z,61.14
2022-11-20T15:15:49.839Z,61.00
2022-11-20T15:18:23.386Z,60.92
2022-11-20T15:20:52.173Z,60.97
2022-11-20T15:23:21.095Z,60.52
2022-11-20T15:25:50.597Z,60.93
2022-11-20T15:28:24.990Z,60.82
2022-11-20T15:30:53.402Z,61.23
2022-11-20T15:33:21.792Z,61.50
2022-11-20T15:35:50.014Z,61.75
2022-11-20T15:38:18.128Z,61.00
2022-11-20T15:40:46.250Z,60.73
2022-11-20T15:43:14.420Z,60.70
2022-11-20T15:45:47.418Z,60.93
2022-11-20T15:48:22.477Z,61.54
2022-11-20T15:50:58.775Z,61.31
2022-11-20T15:53:27.044Z,61.86
2022-11-20T15:55:55.849Z,61.41
2022-11-20T15:58:25.145Z,61.83
2022-11-20T16:00:54.899Z,61.90
2022-11-20T16:03:23.723Z,61.72
2022-11-20T16:05:51.883Z,62.62
2022-11-20T16:08:19.962Z,62.50
2022-11-20T16:10:48.111Z,62.17
2022-11-20T16:13:37.048Z,62.61
2022-11-20T16:16:10.122Z,62.99
2022-11-20T16:18:38.249Z,63.06
2022-11-20T16:21:06.722Z,63.07
2022-11-20T16:23:35.294Z,62.67
2022-11-20T16:26:12.755Z,62.77
2022-11-20T16:28:41.154Z,62.93
2022-11-20T16:31:16.015Z,63.12
2022-11-20T16:33:44.605Z,62.95
2022-11-20T16:36:16.995Z,62.69
2022-11-20T16:38:45.186Z,63.13
2022-11-20T16:41:15.358Z,63.29
2022-11-20T16:43:49.148Z,63.02
2022-11-20T16:46:21.034Z,63.18
2022-11-20T16:48:54.752Z,63.46
2022-11-20T16:51:24.138Z,63.79
2022-11-20T16:53:53.313Z,63.78
2022-11-20T16:56:23.946Z,63.53
2022-11-20T16:58:54.732Z,63.28
2022-11-20T17:01:25.907Z,63.58
2022-11-20T17:03:59.625Z,63.83
2022-11-20T17:06:29.837Z,63.46
2022-11-20T17:08:59.381Z,64.15
2022-11-20T17:11:28.577Z,63.51
2022-11-20T17:13:57.716Z,63.57
2022-11-20T17:16:27.322Z,64.07
2022-11-20T17:19:01.237Z,64.31
2022-11-20T17:21:31.367Z,64.09
2022-11-20T17:24:03.044Z,64.17
2022-11-20T17:26:31.632Z,64.89
2022-11-20T17:29:02.500Z,64.09
2022-11-20T17:31:34.857Z,63.89
2022-11-20T17:34:03.475Z,63.88
2022-11-20T17:36:32.502Z,63.62
2022-11-20T17:39:00.746Z,63.45
2022-11-20T17:41:30.793Z,63.09
2022-11-20T17:44:02.074Z,63.62
2022-11-20T17:46:35.104Z,63.36
2022-11-20T17:49:04.914Z,62.85
2022-11-20T17:51:36.011Z,63.06
2022-11-20T17:54:08.351Z,62.56
2022-11-20T17:56:54.871Z,62.70
2022-11-20T17:59:23.745Z,62.96
2022-11-20T18:01:54.612Z,63.16
2022-11-20T18:04:23.572Z,62.98
2022-11-20T18:06:52.051Z,62.50
2022-11-20T18:09:20.433Z,62.75
2022-11-20T18:11:48.601Z,62.36
2022-11-20T18:14:35.318Z,62.42
2022-11-20T18:17:07.821Z,62.61
2022-11-20T18:19:44.682Z,62.66
2022-11-20T18:22:20.944Z,62.08
2022-11-20T18:24:49.042Z,62.31
2022-11-20T18:27:19.573Z,62.46
2022-11-20T18:29:51.651Z,62.30
2022-11-20T18:32:22.596Z,61.79
2022-11-20T18:34:51.231Z,62.92
2022-11-20T18:37:20.030Z,62.98
2022-11-20T18:39:50.227Z,63.58
2022-11-20T18:42:36.262Z,63.96
2022-11-20T18:45:06.199Z,64.40
2022-11-20T18:47:40.010Z,64.36
2022-11-20T18:50:10.387Z,64.69
2022-11-20T18:52:44.545Z,64.44
2022-11-20T18:55:13.351Z,64.17
2022-11-20T18:57:42.015Z,64.57
2022-11-20T19:00:12.396Z,65.06
2022-11-20T19:02:43.228Z,64.84
2022-11-20T19:05:12.427Z,64.03
2022-11-20T19:07:40.808Z,65.07
2022-11-20T19:10:10.085Z,64.51
2022-11-20T19:12:38.505Z,64.57
2022-11-20T19:15:08.095Z,64.50
2022-11-20T19:17:36.456Z,64.62
2022-11-20T19:20:07.131Z,63.89
2022-11-20T19:22:35.334Z,64.15
2022-11-20T19:25:03.559Z,63.75
2022-11-20T19:27:31.791Z,63.51
2022-11-20T19:30:03.216Z,63.38
2022-11-20T19:32:32.403Z,63.16
2022-11-20T19:35:00.447Z,63.25
2022-11-20T19:37:30.013Z,63.11
2022-11-20T19:39:59.565Z,63.12
2022-11-20T19:42:27.777Z,63.23
2022-11-20T19:44:55.847Z,63.15
2022-11-20T19:47:31.143Z,63.15
2022-11-20T19:50:12.099Z,62.65
2022-11-20T19:52:41.847Z,62.65
2022-11-20T19:55:10.795Z,63.07
2022-11-20T19:57:38.903Z,62.29
2022-11-20T20:00:09.257Z,62.22
2022-11-20T20:02:37.361Z,62.50
2022-11-20T20:05:06.315Z,63.02
2022-11-20T20:07:34.479Z,62.66
2022-11-20T20:10:04.137Z,63.35
2022-11-20T20:12:32.241Z,62.71
2022-11-20T20:15:00.283Z,62.52
2022-11-20T20:17:28.360Z,62.80
2022-11-20T20:19:56.424Z,63.33
2022-11-20T20:22:24.544Z,63.26
2022-11-20T20:24:52.991Z,63.24
2022-11-20T20:27:22.408Z,63.08
2022-11-20T20:29:50.497Z,62.96
2022-11-20T20:32:18.689Z,63.43
2022-11-20T20:34:46.767Z,63.17
2022-11-20T20:37:14.866Z,63.64
2022-11-20T20:39:42.977Z,63.21
2022-11-20T20:42:11.031Z,63.32
2022-11-20T20:44:58.267Z,63.75
2022-11-20T20:47:34.175Z,64.70
2022-11-20T20:50:02.415Z,64.92
2022-11-20T20:52:30.904Z,65.32
2022-11-20T20:54:59.052Z,65.26
2022-11-20T20:57:28.427Z,64.93
2022-11-20T20:59:57.931Z,65.75
2022-11-20T21:02:26.188Z,66.40
2022-11-20T21:04:55.174Z,65.85
2022-11-20T21:07:23.383Z,65.93
2022-11-20T21:09:52.323Z,65.55
2022-11-20T21:12:20.391Z,65.59
2022-11-20T21:14:48.545Z,66.03
2022-11-20T21:17:17.991Z,66.10
2022-11-20T21:19:46.066Z,66.04
2022-11-20T21:22:13.187Z,65.30
2022-11-20T21:24:41.263Z,64.99
2022-11-20T21:27:09.392Z,64.88
2022-11-20T21:29:37.519Z,65.21
2022-11-20T21:32:05.788Z,64.96
2022-11-20T21:34:35.334Z,65.04
2022-11-20T21:37:03.736Z,65.15
2022-11-20T21:39:31.808Z,64.83
2022-11-20T21:41:59.908Z,64.93
2022-11-20T21:44:32.010Z,64.65
2022-11-20T21:47:00.297Z,64.36
2022-11-20T21:49:28.407Z,64.11
2022-11-20T21:51:57.906Z,64.52
2022-11-20T21:54:26.385Z,64.33
2022-11-20T21:56:54.760Z,64.31
2022-11-20T21:59:23.158Z,64.19
2022-11-20T22:01:51.452Z,64.41
2022-11-20T22:04:19.954Z,64.92
2022-11-20T22:06:48.649Z,64.74
2022-11-20T22:09:18.193Z,65.00
2022-11-20T22:11:46.278Z,65.14
2022-11-20T22:14:23.330Z,65.58
2022-11-20T22:16:54.142Z,65.83
2022-11-20T22:19:23.938Z,65.68
2022-11-20T22:21:52.436Z,65.44
2022-11-20T22:24:23.658Z,65.67
2022-11-20T22:26:52.369Z,66.14
2022-11-20T22:29:22.300Z,65.71
2022-11-20T22:31:53.114Z,65.82
2022-11-20T22:34:21.778Z,65.66
2022-11-20T22:36:50.175Z,66.72
2022-11-20T22:39:18.730Z,65.99
2022-11-20T22:41:48.220Z,65.63
2022-11-20T22:44:16.998Z,66.26
2022-11-20T22:46:45.284Z,66.38
2022-11-20T22:49:13.481Z,65.96
2022-11-20T22:51:42.635Z,65.78
2022-11-20T22:54:12.903Z,65.45
2022-11-20T22:56:41.371Z,65.45
2022-11-20T22:59:11.264Z,65.20
2022-11-20T23:01:39.963Z,65.54
2022-11-20T23:04:11.630Z,65.25
2022-11-20T23:06:40.006Z,65.13
2022-11-20T23:09:11.403Z,65.08
2022-11-20T23:11:39.817Z,64.65
2022-11-20T23:14:13.726Z,65.32
2022-11-20T23:16:41.965Z,65.34
2022-11-20T23:19:12.801Z,65.37
2022-11-20T23:21:42.622Z,65.40
2022-11-20T23:24:11.763Z,64.83
2022-11-20T23:26:42.028Z,64.88
2022-11-20T23:29:11.834Z,65.10
2022-11-20T23:31:40.262Z,65.33
2022-11-20T23:34:08.332Z,65.36
2022-11-20T23:36:36.406Z,65.76
2022-11-20T23:39:04.542Z,65.97
2022-11-20T23:41:32.577Z,65.91
2022-11-20T23:44:00.684Z,65.93
2022-11-20T23:46:30.114Z,66.62
2022-11-20T23:48:58.148Z,66.99
2022-11-20T23:51:26.217Z,66.61
2022-11-20T23:53:54.265Z,65.87
2022-11-20T23:56:22.323Z,66.70
2022-11-20T23:58:50.386Z,66.75
